Fort Mchenry — WD19336 — position and weather

sailwx.info

Track history (hours):
 
Tides and Currents Weather Stations Pressure Air Temp Water Temp Dewpoint Dewpoint Depression Visibility Wind Speed Wind Dir Waves Ship Positions

Fort Mchenry

Last reported at 2018-Feb-18 01:30 UTC. Time now 2018-Feb-18 01:35 UTC.
Position N 40°40' W 074°00'.

Length 28 m; draft 4 m.

Type: Towing. MMSI: 369131000.

Date/timePositionNaut miles runAvg speedWind from/ knotsBaromVisibWave heightAir tempDewpointWater temp
2018-Feb-18 01:30N 40°40' W 074°00'0 0.0
2018-Feb-18 01:00N 40°40' W 074°00'0 0.0
2018-Feb-18 00:30N 40°40' W 074°00'0 0.0
2018-Feb-18 00:00N 40°40' W 074°00'0 0.0
2018-Feb-17 23:30N 40°40' W 074°00'0 0.0
2018-Feb-17 23:00N 40°40' W 074°00'0 0.0
2018-Feb-17 22:30N 40°40' W 074°00'0 0.0
2018-Feb-17 22:00N 40°40' W 074°00'0 0.0
2018-Feb-17 21:30N 40°40' W 074°00'0 0.0
2018-Feb-17 21:00N 40°40' W 074°00'0 0.0
2018-Feb-17 20:30N 40°40' W 074°00'0 0.5
2018-Feb-17 20:00N 40°40' W 074°00'0 0.0
2018-Feb-17 19:30N 40°40' W 074°00'0 0.0
2018-Feb-17 19:00N 40°40' W 074°00'0 0.0
2018-Feb-17 18:30N 40°40' W 074°00'0 0.0
2018-Feb-17 18:00N 40°40' W 074°00'0 0.0
2018-Feb-17 17:30N 40°40' W 074°00'0 0.2
2018-Feb-17 17:00N 40°40' W 074°00'1 2.9
2018-Feb-17 16:30N 40°41' W 074°00'2 4.4
2018-Feb-17 16:00N 40°43' W 073°58'4 7.6
2018-Feb-17 15:30N 40°47' W 073°56'3 6.5
2018-Feb-17 15:00N 40°48' W 073°52'4 7.7
2018-Feb-17 14:30N 40°48' W 073°47'4 8.4
2018-Feb-17 13:58N 40°52' W 073°45'5 8.7
2018-Feb-17 13:27N 40°55' W 073°40'4 7.7
2018-Feb-17 12:56N 40°57' W 073°35'37 6.7
2018-Feb-17 07:28N 41°06' W 072°48'3 7.0
2018-Feb-17 07:00N 41°07' W 072°44'3 6.9
2018-Feb-17 06:30N 41°07' W 072°39'3 5.9
2018-Feb-17 06:00N 41°08' W 072°35'3 6.2
2018-Feb-17 05:30N 41°09' W 072°31'3 6.5
2018-Feb-17 05:00N 41°10' W 072°27'3 6.6
2018-Feb-17 04:30N 41°11' W 072°23'3 6.9
2018-Feb-17 04:00N 41°12' W 072°19'4 7.5
2018-Feb-17 03:30N 41°13' W 072°14'4 7.7
2018-Feb-17 03:00N 41°15' W 072°10'3 5.5
2018-Feb-17 02:30N 41°16' W 072°06'11 0.3
2018-Feb-15 18:22N 41°13' W 072°20'410.3
2018-Feb-15 18:00N 41°12' W 072°25'5 9.6
2018-Feb-15 17:30N 41°11' W 072°31'5 9.1
2018-Feb-15 17:00N 41°11' W 072°37'4 8.5
2018-Feb-15 16:30N 41°12' W 072°42'4 8.1
2018-Feb-15 15:58N 41°12' W 072°48'5 0.5
2018-Feb-15 06:18N 41°12' W 072°54'45 8.2
2018-Feb-15 00:45N 40°50' W 073°47'2 6.8
2018-Feb-15 00:27N 40°48' W 073°48'4 9.2
2018-Feb-15 00:00N 40°48' W 073°54'4 8.7
2018-Feb-14 23:30N 40°45' W 073°58'4 8.1
2018-Feb-14 23:00N 40°42' W 074°00'4 8.1
2018-Feb-14 22:30N 40°39' W 074°05'2 4.1
2018-Feb-14 22:00N 40°39' W 074°07'3 6.7
2018-Feb-14 21:30N 40°38' W 074°12'1 2.0
2018-Feb-14 21:00N 40°38' W 074°12'4 8.3
2018-Feb-14 20:30N 40°39' W 074°07'2 4.0
2018-Feb-14 19:59N 40°40' W 074°05'0 0.0
2018-Feb-14 19:28N 40°40' W 074°05'0 0.0
2018-Feb-14 18:43N 40°40' W 074°05'0 0.0
2018-Feb-14 18:28N 40°40' W 074°05'0 0.0
2018-Feb-14 17:58N 40°40' W 074°05'0 0.0
2018-Feb-14 17:28N 40°40' W 074°05'0 0.0
2018-Feb-14 16:58N 40°40' W 074°05'0 0.0
2018-Feb-14 16:28N 40°40' W 074°05'0 0.0
2018-Feb-14 15:58N 40°40' W 074°05'0 0.7
2018-Feb-14 15:30N 40°40' W 074°05'0 0.1
2018-Feb-14 15:00N 40°40' W 074°05'1 2.5
2018-Feb-14 14:30N 40°39' W 074°05'2 4.8
2018-Feb-14 14:00N 40°40' W 074°03'2 4.1
2018-Feb-14 13:29N 40°40' W 074°00'0 0.0
2018-Feb-14 12:59N 40°40' W 074°00'4 7.4
2018-Feb-14 12:31N 40°39' W 074°05'3 6.1
2018-Feb-14 12:00N 40°40' W 074°08'0 0.0
2018-Feb-14 11:28N 40°40' W 074°08'0 0.2
2018-Feb-14 11:00N 40°40' W 074°08'1 2.6
2018-Feb-14 10:29N 40°41' W 074°09'0 0.1
2018-Feb-14 09:59N 40°41' W 074°09'0 0.0
2018-Feb-14 09:29N 40°41' W 074°09'0 0.0
2018-Feb-14 08:59N 40°41' W 074°09'0 0.0
2018-Feb-14 08:29N 40°41' W 074°09'0 0.0
2018-Feb-14 07:59N 40°41' W 074°09'0 0.0
2018-Feb-14 07:29N 40°41' W 074°09'0 0.0
2018-Feb-14 06:59N 40°41' W 074°09'0 0.0
2018-Feb-14 06:29N 40°41' W 074°09'0 0.0
2018-Feb-14 05:59N 40°41' W 074°09'0 0.0
2018-Feb-14 05:29N 40°41' W 074°09'0 0.0
2018-Feb-14 04:53N 40°41' W 074°09'0 0.0
2018-Feb-14 04:30N 40°41' W 074°09'0 0.0
2018-Feb-14 03:59N 40°41' W 074°09'0 0.0
2018-Feb-14 03:29N 40°41' W 074°09'0 0.0
2018-Feb-14 02:56N 40°41' W 074°09'0 0.0
2018-Feb-14 02:29N 40°41' W 074°09'0 0.0
2018-Feb-14 01:59N 40°41' W 074°09'0 0.0
2018-Feb-14 01:29N 40°41' W 074°09'0 0.0
2018-Feb-14 00:59N 40°41' W 074°09'0 0.0
2018-Feb-14 00:27N 40°41' W 074°09'0 0.0
2018-Feb-13 23:53N 40°41' W 074°09'0 0.0
2018-Feb-13 23:29N 40°41' W 074°09'0 0.0
2018-Feb-13 22:59N 40°41' W 074°09'0 0.0
2018-Feb-13 22:29N 40°41' W 074°09'0 0.0
2018-Feb-13 21:53N 40°41' W 074°09'0 0.0
2018-Feb-13 21:23N 40°41' W 074°09'0 0.0
2018-Feb-13 20:47N 40°41' W 074°09'0 0.0
2018-Feb-13 20:15N 40°41' W 074°09'0 0.0
2018-Feb-13 19:56N 40°41' W 074°09'0 0.0
2018-Feb-13 19:23N 40°41' W 074°09'0 0.8
2018-Feb-13 19:00N 40°41' W 074°09'1 2.9
2018-Feb-13 18:30N 40°40' W 074°09'2 3.2
2018-Feb-13 18:00N 40°39' W 074°07'1 2.7
2018-Feb-13 17:29N 40°39' W 074°05'0 0.0
2018-Feb-13 16:59N 40°39' W 074°05'0 0.0
2018-Feb-13 16:29N 40°39' W 074°05'0 0.0
2018-Feb-13 15:59N 40°39' W 074°05'0 0.0
2018-Feb-13 15:29N 40°39' W 074°05'0 0.0
2018-Feb-13 14:59N 40°39' W 074°05'0 0.0
2018-Feb-13 14:29N 40°39' W 074°05'0 0.0
2018-Feb-13 13:59N 40°39' W 074°05'1 1.4
2018-Feb-13 13:30N 40°39' W 074°04'3 6.1
2018-Feb-13 12:59N 40°40' W 074°00'2 3.5
2018-Feb-13 12:30N 40°39' W 074°02'4 8.7
2018-Feb-13 12:00N 40°39' W 074°08'2 4.8
2018-Feb-13 11:30N 40°41' W 074°09'0 0.2
2018-Feb-13 11:00N 40°41' W 074°09'0 0.0
2018-Feb-13 10:30N 40°41' W 074°09'0 0.0
2018-Feb-13 10:00N 40°41' W 074°09'0 0.0
2018-Feb-13 09:30N 40°41' W 074°09'0 0.0
2018-Feb-13 08:54N 40°41' W 074°09'0 0.0
2018-Feb-13 08:30N 40°41' W 074°09'0 0.0
2018-Feb-13 08:00N 40°41' W 074°09'0 0.0
2018-Feb-13 07:27N 40°41' W 074°09'0 0.0
2018-Feb-13 06:57N 40°41' W 074°09'0 0.0
2018-Feb-13 06:27N 40°41' W 074°09'0 0.0
2018-Feb-13 06:00N 40°41' W 074°09'0 0.0
2018-Feb-13 05:30N 40°41' W 074°09'0 0.0
2018-Feb-13 05:00N 40°41' W 074°09'0 0.0
2018-Feb-13 04:30N 40°41' W 074°09'0 0.0
2018-Feb-13 04:00N 40°41' W 074°09'0 0.0
2018-Feb-13 03:24N 40°41' W 074°09'0 0.0
2018-Feb-13 02:57N 40°41' W 074°09'0 0.0
2018-Feb-13 02:30N 40°41' W 074°09'0 0.0
2018-Feb-13 02:00N 40°41' W 074°09'0 0.0
2018-Feb-13 01:27N 40°41' W 074°09'0 0.0
2018-Feb-13 01:00N 40°41' W 074°09'0 0.0
2018-Feb-13 00:27N 40°41' W 074°09'1 1.1
2018-Feb-12 23:59N 40°41' W 074°10'0 0.0
2018-Feb-12 23:23N 40°41' W 074°10'0 0.1
2018-Feb-12 23:00N 40°41' W 074°10'2 4.7
2018-Feb-12 22:30N 40°39' W 074°09'1 2.5
2018-Feb-12 21:55N 40°39' W 074°07'0 0.0
2018-Feb-12 21:28N 40°39' W 074°07'2 3.3
2018-Feb-12 21:00N 40°39' W 074°05'0 0.1
2018-Feb-12 20:28N 40°39' W 074°05'2 4.1
2018-Feb-12 19:59N 40°40' W 074°03'1 1.7
2018-Feb-12 19:30N 40°40' W 074°03'1 2.1
2018-Feb-12 19:00N 40°39' W 074°04'0 0.6
2018-Feb-12 18:31N 40°39' W 074°04'1 1.3
2018-Feb-12 18:01N 40°39' W 074°05'2 2.9
2018-Feb-12 17:29N 40°39' W 074°07'0 0.7
2018-Feb-12 17:00N 40°39' W 074°07'3 6.0
2018-Feb-12 16:29N 40°40' W 074°03'2 4.0
2018-Feb-12 15:58N 40°40' W 074°00'0 0.0
2018-Feb-12 15:16N 40°40' W 074°00'0 0.2
2018-Feb-12 14:58N 40°40' W 074°00'0 0.0
2018-Feb-12 14:28N 40°40' W 074°00'2 4.5
2018-Feb-12 14:00N 40°40' W 074°03'1 1.1
2018-Feb-12 13:30N 40°40' W 074°02'4 7.6
2018-Feb-12 12:59N 40°39' W 074°07'3 5.8
2018-Feb-12 12:30N 40°41' W 074°08'1 1.8
2018-Feb-12 12:00N 40°40' W 074°08'2 3.5
2018-Feb-12 11:30N 40°39' W 074°07'0 0.0
2018-Feb-12 11:00N 40°39' W 074°07'0 0.0
2018-Feb-12 10:30N 40°39' W 074°07'2 4.0
2018-Feb-12 10:00N 40°39' W 074°04'2 3.3
2018-Feb-12 09:28N 40°40' W 074°03'1 2.1
2018-Feb-12 08:58N 40°40' W 074°04'0 0.0
2018-Feb-12 08:28N 40°40' W 074°04'0 0.0
2018-Feb-12 07:58N 40°40' W 074°04'0 0.0
2018-Feb-12 07:28N 40°40' W 074°04'0 0.0
2018-Feb-12 07:01N 40°40' W 074°04'3 6.3
2018-Feb-12 06:30N 40°39' W 074°08'3 5.5
2018-Feb-12 06:00N 40°41' W 074°08'1 1.8
2018-Feb-12 05:31N 40°40' W 074°08'2 4.0
2018-Feb-12 05:00N 40°39' W 074°06'0 0.4
2018-Feb-12 04:26N 40°39' W 074°06'2 4.2
2018-Feb-12 04:01N 40°40' W 074°04'1 1.3
2018-Feb-12 03:30N 40°40' W 074°05'0 0.0
2018-Feb-12 02:57N 40°40' W 074°05'0 0.0
2018-Feb-12 02:30N 40°40' W 074°05'0 0.7
2018-Feb-12 01:58N 40°40' W 074°05'0 0.1
2018-Feb-12 01:31N 40°40' W 074°05'0 0.2
2018-Feb-12 00:58N 40°40' W 074°05'1 1.7
2018-Feb-12 00:30N 40°40' W 074°04'3 4.9
2018-Feb-12 00:00N 40°40' W 074°00'0 0.2
2018-Feb-11 23:30N 40°40' W 074°00'0 0.0
2018-Feb-11 23:00N 40°40' W 074°00'0 0.0
2018-Feb-11 22:30N 40°40' W 074°00'0 0.0
2018-Feb-11 22:00N 40°40' W 074°00'2 3.8
2018-Feb-11 21:30N 40°39' W 074°02'2 4.6
2018-Feb-11 20:58N 40°40' W 074°05'2 3.3
2018-Feb-11 20:30N 40°40' W 074°03'0 0.2
2018-Feb-11 20:00N 40°40' W 074°03'2 4.0
2018-Feb-11 19:31N 40°38' W 074°04'0 0.9
2018-Feb-11 19:01N 40°38' W 074°03'3 5.5
2018-Feb-11 18:29N 40°40' W 074°00'0 0.0
2018-Feb-11 17:59N 40°40' W 074°00'0 0.0
2018-Feb-11 17:30N 40°40' W 074°00'0 0.9
2018-Feb-11 17:00N 40°40' W 074°01'1 1.1
2018-Feb-11 16:30N 40°40' W 074°00'0 0.0
2018-Feb-11 16:00N 40°40' W 074°00'1 1.3
2018-Feb-11 15:30N 40°40' W 074°01'3 6.4
2018-Feb-11 14:59N 40°39' W 074°05'1 1.4
2018-Feb-11 14:30N 40°39' W 074°05'1 2.4
2018-Feb-11 13:58N 40°38' W 074°04'2 3.6
2018-Feb-11 13:30N 40°40' W 074°04'1 1.3
2018-Feb-11 13:00N 40°40' W 074°04'0 0.0
2018-Feb-11 12:30N 40°40' W 074°04'0 0.3
2018-Feb-11 12:00N 40°40' W 074°04'0 0.0
2018-Feb-11 11:30N 40°40' W 074°04'0 0.0
2018-Feb-11 11:00N 40°40' W 074°04'0 0.0
2018-Feb-11 10:30N 40°40' W 074°04'0 0.0
2018-Feb-11 10:00N 40°40' W 074°04'0 0.0
2018-Feb-11 09:30N 40°40' W 074°04'0 0.0
2018-Feb-11 08:57N 40°40' W 074°04'0 0.0
2018-Feb-11 08:30N 40°40' W 074°04'0 0.0
2018-Feb-11 08:00N 40°40' W 074°04'0 0.0
2018-Feb-11 07:30N 40°40' W 074°04'0 0.0
2018-Feb-11 07:00N 40°40' W 074°04'0 0.0
2018-Feb-11 06:30N 40°40' W 074°04'0 0.0
2018-Feb-11 06:00N 40°40' W 074°04'1 3.0
2018-Feb-11 05:30N 40°39' W 074°03'2 3.7
2018-Feb-11 05:01N 40°39' W 074°06'1 1.5
2018-Feb-11 04:30N 40°39' W 074°06'0 0.0
2018-Feb-11 04:00N 40°39' W 074°06'1 2.4
2018-Feb-11 03:30N 40°39' W 074°05'1 2.1
2018-Feb-11 03:00N 40°40' W 074°04'1 2.5
2018-Feb-11 02:30N 40°39' W 074°03'2 4.1
2018-Feb-11 01:58N 40°40' W 074°00'0 0.0
2018-Feb-11 01:28N 40°40' W 074°00'0 0.0
2018-Feb-11 01:01N 40°40' W 074°00'1 2.0
2018-Feb-11 00:31N 40°40' W 074°01'4 7.9
2018-Feb-11 00:01N 40°39' W 074°06'2 4.3
2018-Feb-10 23:30N 40°41' W 074°08'2 2.8
2018-Feb-10 22:58N 40°42' W 074°09'0 0.0
2018-Feb-10 22:22N 40°42' W 074°09'0 0.0
2018-Feb-10 21:58N 40°42' W 074°09'0 0.0
2018-Feb-10 21:28N 40°42' W 074°09'0 0.0
2018-Feb-10 20:58N 40°42' W 074°09'0 0.0
2018-Feb-10 20:28N 40°42' W 074°09'0 0.0
2018-Feb-10 19:58N 40°42' W 074°09'0 0.0
2018-Feb-10 19:28N 40°42' W 074°09'0 0.0
2018-Feb-10 18:58N 40°42' W 074°09'1 2.1
2018-Feb-10 18:31N 40°41' W 074°08'1 1.6
2018-Feb-10 17:57N 40°41' W 074°10'0 0.0
2018-Feb-10 17:30N 40°41' W 074°10'0 0.0
2018-Feb-10 17:00N 40°41' W 074°09'0 0.0
2018-Feb-10 16:30N 40°41' W 074°10'0 0.0
2018-Feb-10 16:00N 40°41' W 074°10'0 0.0
2018-Feb-10 15:30N 40°41' W 074°10'0 0.0
2018-Feb-10 15:00N 40°41' W 074°10'0 0.0
2018-Feb-10 14:30N 40°41' W 074°10'0 0.0
2018-Feb-10 14:00N 40°41' W 074°10'0 0.0
2018-Feb-10 13:30N 40°41' W 074°10'0 0.0
2018-Feb-10 13:00N 40°41' W 074°09'2 3.7
2018-Feb-10 12:30N 40°40' W 074°09'2 3.6
2018-Feb-10 11:56N 40°39' W 074°06'2 3.8
2018-Feb-10 11:30N 40°40' W 074°04'1 1.8
2018-Feb-10 10:58N 40°40' W 074°05'0 0.0
2018-Feb-10 10:26N 40°40' W 074°05'1 1.8
2018-Feb-10 10:00N 40°40' W 074°04'2 3.6
2018-Feb-10 09:30N 40°39' W 074°06'1 1.9
2018-Feb-10 09:00N 40°39' W 074°05'2 3.9
2018-Feb-10 08:29N 40°41' W 074°03'1 2.2
2018-Feb-10 08:00N 40°40' W 074°04'0 0.3
2018-Feb-10 07:30N 40°40' W 074°04'0 0.0
2018-Feb-10 07:00N 40°40' W 074°04'0 0.0
2018-Feb-10 06:30N 40°40' W 074°04'0 0.0
2018-Feb-10 06:00N 40°40' W 074°04'2 3.9
2018-Feb-10 05:31N 40°39' W 074°02'2 3.2
2018-Feb-10 04:59N 40°40' W 074°00'0 0.0
2018-Feb-10 04:29N 40°40' W 074°00'0 0.2
2018-Feb-10 04:00N 40°40' W 074°00'1 1.3
2018-Feb-10 03:30N 40°40' W 074°01'3 6.5
2018-Feb-10 03:00N 40°43' W 074°01'5 9.8
2018-Feb-10 02:30N 40°48' W 073°59'5 9.7
2018-Feb-10 01:59N 40°52' W 073°56'4 9.3
2018-Feb-10 01:30N 40°56' W 073°54'  
Track history (hours):
 
Tides and Currents Weather Stations Pressure Air Temp Water Temp Dewpoint Dewpoint Depression Visibility Wind Speed Wind Dir Waves Ship Positions

Fort Mchenry

Last reported at 2018-Feb-18 01:30 UTC. Time now 2018-Feb-18 01:35 UTC.
Position N 40°40' W 074°00'.

Length 28 m; draft 4 m.

Type: Towing. MMSI: 369131000.

Date/timePositionNaut miles runAvg speedWind from/ knotsBaromVisibWave heightAir tempDewpointWater temp
2018-Feb-18 01:30N 40°40' W 074°00'0 0.0
2018-Feb-18 01:00N 40°40' W 074°00'0 0.0
2018-Feb-18 00:30N 40°40' W 074°00'0 0.0
2018-Feb-18 00:00N 40°40' W 074°00'0 0.0
2018-Feb-17 23:30N 40°40' W 074°00'0 0.0
2018-Feb-17 23:00N 40°40' W 074°00'0 0.0
2018-Feb-17 22:30N 40°40' W 074°00'0 0.0
2018-Feb-17 22:00N 40°40' W 074°00'0 0.0
2018-Feb-17 21:30N 40°40' W 074°00'0 0.0
2018-Feb-17 21:00N 40°40' W 074°00'0 0.0
2018-Feb-17 20:30N 40°40' W 074°00'0 0.5
2018-Feb-17 20:00N 40°40' W 074°00'0 0.0
2018-Feb-17 19:30N 40°40' W 074°00'0 0.0
2018-Feb-17 19:00N 40°40' W 074°00'0 0.0
2018-Feb-17 18:30N 40°40' W 074°00'0 0.0
2018-Feb-17 18:00N 40°40' W 074°00'0 0.0
2018-Feb-17 17:30N 40°40' W 074°00'0 0.2
2018-Feb-17 17:00N 40°40' W 074°00'1 2.9
2018-Feb-17 16:30N 40°41' W 074°00'2 4.4
2018-Feb-17 16:00N 40°43' W 073°58'4 7.6
2018-Feb-17 15:30N 40°47' W 073°56'3 6.5
2018-Feb-17 15:00N 40°48' W 073°52'4 7.7
2018-Feb-17 14:30N 40°48' W 073°47'4 8.4
2018-Feb-17 13:58N 40°52' W 073°45'5 8.7
2018-Feb-17 13:27N 40°55' W 073°40'4 7.7
2018-Feb-17 12:56N 40°57' W 073°35'37 6.7
2018-Feb-17 07:28N 41°06' W 072°48'3 7.0
2018-Feb-17 07:00N 41°07' W 072°44'3 6.9
2018-Feb-17 06:30N 41°07' W 072°39'3 5.9
2018-Feb-17 06:00N 41°08' W 072°35'3 6.2
2018-Feb-17 05:30N 41°09' W 072°31'3 6.5
2018-Feb-17 05:00N 41°10' W 072°27'3 6.6
2018-Feb-17 04:30N 41°11' W 072°23'3 6.9
2018-Feb-17 04:00N 41°12' W 072°19'4 7.5
2018-Feb-17 03:30N 41°13' W 072°14'4 7.7
2018-Feb-17 03:00N 41°15' W 072°10'3 5.5
2018-Feb-17 02:30N 41°16' W 072°06'11 0.3
2018-Feb-15 18:22N 41°13' W 072°20'410.3
2018-Feb-15 18:00N 41°12' W 072°25'5 9.6
2018-Feb-15 17:30N 41°11' W 072°31'5 9.1
2018-Feb-15 17:00N 41°11' W 072°37'4 8.5
2018-Feb-15 16:30N 41°12' W 072°42'4 8.1
2018-Feb-15 15:58N 41°12' W 072°48'5 0.5
2018-Feb-15 06:18N 41°12' W 072°54'45 8.2
2018-Feb-15 00:45N 40°50' W 073°47'2 6.8
2018-Feb-15 00:27N 40°48' W 073°48'4 9.2
2018-Feb-15 00:00N 40°48' W 073°54'4 8.7
2018-Feb-14 23:30N 40°45' W 073°58'4 8.1
2018-Feb-14 23:00N 40°42' W 074°00'4 8.1
2018-Feb-14 22:30N 40°39' W 074°05'2 4.1
2018-Feb-14 22:00N 40°39' W 074°07'3 6.7
2018-Feb-14 21:30N 40°38' W 074°12'1 2.0
2018-Feb-14 21:00N 40°38' W 074°12'4 8.3
2018-Feb-14 20:30N 40°39' W 074°07'2 4.0
2018-Feb-14 19:59N 40°40' W 074°05'0 0.0
2018-Feb-14 19:28N 40°40' W 074°05'0 0.0
2018-Feb-14 18:43N 40°40' W 074°05'0 0.0
2018-Feb-14 18:28N 40°40' W 074°05'0 0.0
2018-Feb-14 17:58N 40°40' W 074°05'0 0.0
2018-Feb-14 17:28N 40°40' W 074°05'0 0.0
2018-Feb-14 16:58N 40°40' W 074°05'0 0.0
2018-Feb-14 16:28N 40°40' W 074°05'0 0.0
2018-Feb-14 15:58N 40°40' W 074°05'0 0.7
2018-Feb-14 15:30N 40°40' W 074°05'0 0.1
2018-Feb-14 15:00N 40°40' W 074°05'1 2.5
2018-Feb-14 14:30N 40°39' W 074°05'2 4.8
2018-Feb-14 14:00N 40°40' W 074°03'2 4.1
2018-Feb-14 13:29N 40°40' W 074°00'0 0.0
2018-Feb-14 12:59N 40°40' W 074°00'4 7.4
2018-Feb-14 12:31N 40°39' W 074°05'3 6.1
2018-Feb-14 12:00N 40°40' W 074°08'0 0.0
2018-Feb-14 11:28N 40°40' W 074°08'0 0.2
2018-Feb-14 11:00N 40°40' W 074°08'1 2.6
2018-Feb-14 10:29N 40°41' W 074°09'0 0.1
2018-Feb-14 09:59N 40°41' W 074°09'0 0.0
2018-Feb-14 09:29N 40°41' W 074°09'0 0.0
2018-Feb-14 08:59N 40°41' W 074°09'0 0.0
2018-Feb-14 08:29N 40°41' W 074°09'0 0.0
2018-Feb-14 07:59N 40°41' W 074°09'0 0.0
2018-Feb-14 07:29N 40°41' W 074°09'0 0.0
2018-Feb-14 06:59N 40°41' W 074°09'0 0.0
2018-Feb-14 06:29N 40°41' W 074°09'0 0.0
2018-Feb-14 05:59N 40°41' W 074°09'0 0.0
2018-Feb-14 05:29N 40°41' W 074°09'0 0.0
2018-Feb-14 04:53N 40°41' W 074°09'0 0.0
2018-Feb-14 04:30N 40°41' W 074°09'0 0.0
2018-Feb-14 03:59N 40°41' W 074°09'0 0.0
2018-Feb-14 03:29N 40°41' W 074°09'0 0.0
2018-Feb-14 02:56N 40°41' W 074°09'0 0.0
2018-Feb-14 02:29N 40°41' W 074°09'0 0.0
2018-Feb-14 01:59N 40°41' W 074°09'0 0.0
2018-Feb-14 01:29N 40°41' W 074°09'0 0.0
2018-Feb-14 00:59N 40°41' W 074°09'0 0.0
2018-Feb-14 00:27N 40°41' W 074°09'0 0.0
2018-Feb-13 23:53N 40°41' W 074°09'0 0.0
2018-Feb-13 23:29N 40°41' W 074°09'0 0.0
2018-Feb-13 22:59N 40°41' W 074°09'0 0.0
2018-Feb-13 22:29N 40°41' W 074°09'0 0.0
2018-Feb-13 21:53N 40°41' W 074°09'0 0.0
2018-Feb-13 21:23N 40°41' W 074°09'0 0.0
2018-Feb-13 20:47N 40°41' W 074°09'0 0.0
2018-Feb-13 20:15N 40°41' W 074°09'0 0.0
2018-Feb-13 19:56N 40°41' W 074°09'0 0.0
2018-Feb-13 19:23N 40°41' W 074°09'0 0.8
2018-Feb-13 19:00N 40°41' W 074°09'1 2.9
2018-Feb-13 18:30N 40°40' W 074°09'2 3.2
2018-Feb-13 18:00N 40°39' W 074°07'1 2.7
2018-Feb-13 17:29N 40°39' W 074°05'0 0.0
2018-Feb-13 16:59N 40°39' W 074°05'0 0.0
2018-Feb-13 16:29N 40°39' W 074°05'0 0.0
2018-Feb-13 15:59N 40°39' W 074°05'0 0.0
2018-Feb-13 15:29N 40°39' W 074°05'0 0.0
2018-Feb-13 14:59N 40°39' W 074°05'0 0.0
2018-Feb-13 14:29N 40°39' W 074°05'0 0.0
2018-Feb-13 13:59N 40°39' W 074°05'1 1.4
2018-Feb-13 13:30N 40°39' W 074°04'3 6.1
2018-Feb-13 12:59N 40°40' W 074°00'2 3.5
2018-Feb-13 12:30N 40°39' W 074°02'4 8.7
2018-Feb-13 12:00N 40°39' W 074°08'2 4.8
2018-Feb-13 11:30N 40°41' W 074°09'0 0.2
2018-Feb-13 11:00N 40°41' W 074°09'0 0.0
2018-Feb-13 10:30N 40°41' W 074°09'0 0.0
2018-Feb-13 10:00N 40°41' W 074°09'0 0.0
2018-Feb-13 09:30N 40°41' W 074°09'0 0.0
2018-Feb-13 08:54N 40°41' W 074°09'0 0.0
2018-Feb-13 08:30N 40°41' W 074°09'0 0.0
2018-Feb-13 08:00N 40°41' W 074°09'0 0.0
2018-Feb-13 07:27N 40°41' W 074°09'0 0.0
2018-Feb-13 06:57N 40°41' W 074°09'0 0.0
2018-Feb-13 06:27N 40°41' W 074°09'0 0.0
2018-Feb-13 06:00N 40°41' W 074°09'0 0.0
2018-Feb-13 05:30N 40°41' W 074°09'0 0.0
2018-Feb-13 05:00N 40°41' W 074°09'0 0.0
2018-Feb-13 04:30N 40°41' W 074°09'0 0.0
2018-Feb-13 04:00N 40°41' W 074°09'0 0.0
2018-Feb-13 03:24N 40°41' W 074°09'0 0.0
2018-Feb-13 02:57N 40°41' W 074°09'0 0.0
2018-Feb-13 02:30N 40°41' W 074°09'0 0.0
2018-Feb-13 02:00N 40°41' W 074°09'0 0.0
2018-Feb-13 01:27N 40°41' W 074°09'0 0.0
2018-Feb-13 01:00N 40°41' W 074°09'0 0.0
2018-Feb-13 00:27N 40°41' W 074°09'1 1.1
2018-Feb-12 23:59N 40°41' W 074°10'0 0.0
2018-Feb-12 23:23N 40°41' W 074°10'0 0.1
2018-Feb-12 23:00N 40°41' W 074°10'2 4.7
2018-Feb-12 22:30N 40°39' W 074°09'1 2.5
2018-Feb-12 21:55N 40°39' W 074°07'0 0.0
2018-Feb-12 21:28N 40°39' W 074°07'2 3.3
2018-Feb-12 21:00N 40°39' W 074°05'0 0.1
2018-Feb-12 20:28N 40°39' W 074°05'2 4.1
2018-Feb-12 19:59N 40°40' W 074°03'1 1.7
2018-Feb-12 19:30N 40°40' W 074°03'1 2.1
2018-Feb-12 19:00N 40°39' W 074°04'0 0.6
2018-Feb-12 18:31N 40°39' W 074°04'1 1.3
2018-Feb-12 18:01N 40°39' W 074°05'2 2.9
2018-Feb-12 17:29N 40°39' W 074°07'0 0.7
2018-Feb-12 17:00N 40°39' W 074°07'3 6.0
2018-Feb-12 16:29N 40°40' W 074°03'2 4.0
2018-Feb-12 15:58N 40°40' W 074°00'0 0.0
2018-Feb-12 15:16N 40°40' W 074°00'0 0.2
2018-Feb-12 14:58N 40°40' W 074°00'0 0.0
2018-Feb-12 14:28N 40°40' W 074°00'2 4.5
2018-Feb-12 14:00N 40°40' W 074°03'1 1.1
2018-Feb-12 13:30N 40°40' W 074°02'4 7.6
2018-Feb-12 12:59N 40°39' W 074°07'3 5.8
2018-Feb-12 12:30N 40°41' W 074°08'1 1.8
2018-Feb-12 12:00N 40°40' W 074°08'2 3.5
2018-Feb-12 11:30N 40°39' W 074°07'0 0.0
2018-Feb-12 11:00N 40°39' W 074°07'0 0.0
2018-Feb-12 10:30N 40°39' W 074°07'2 4.0
2018-Feb-12 10:00N 40°39' W 074°04'2 3.3
2018-Feb-12 09:28N 40°40' W 074°03'1 2.1
2018-Feb-12 08:58N 40°40' W 074°04'0 0.0
2018-Feb-12 08:28N 40°40' W 074°04'0 0.0
2018-Feb-12 07:58N 40°40' W 074°04'0 0.0
2018-Feb-12 07:28N 40°40' W 074°04'0 0.0
2018-Feb-12 07:01N 40°40' W 074°04'3 6.3
2018-Feb-12 06:30N 40°39' W 074°08'3 5.5
2018-Feb-12 06:00N 40°41' W 074°08'1 1.8
2018-Feb-12 05:31N 40°40' W 074°08'2 4.0
2018-Feb-12 05:00N 40°39' W 074°06'0 0.4
2018-Feb-12 04:26N 40°39' W 074°06'2 4.2
2018-Feb-12 04:01N 40°40' W 074°04'1 1.3
2018-Feb-12 03:30N 40°40' W 074°05'0 0.0
2018-Feb-12 02:57N 40°40' W 074°05'0 0.0
2018-Feb-12 02:30N 40°40' W 074°05'0 0.7
2018-Feb-12 01:58N 40°40' W 074°05'0 0.1
2018-Feb-12 01:31N 40°40' W 074°05'0 0.2
2018-Feb-12 00:58N 40°40' W 074°05'1 1.7
2018-Feb-12 00:30N 40°40' W 074°04'3 4.9
2018-Feb-12 00:00N 40°40' W 074°00'0 0.2
2018-Feb-11 23:30N 40°40' W 074°00'0 0.0
2018-Feb-11 23:00N 40°40' W 074°00'0 0.0
2018-Feb-11 22:30N 40°40' W 074°00'0 0.0
2018-Feb-11 22:00N 40°40' W 074°00'2 3.8
2018-Feb-11 21:30N 40°39' W 074°02'2 4.6
2018-Feb-11 20:58N 40°40' W 074°05'2 3.3
2018-Feb-11 20:30N 40°40' W 074°03'0 0.2
2018-Feb-11 20:00N 40°40' W 074°03'2 4.0
2018-Feb-11 19:31N 40°38' W 074°04'0 0.9
2018-Feb-11 19:01N 40°38' W 074°03'3 5.5
2018-Feb-11 18:29N 40°40' W 074°00'0 0.0
2018-Feb-11 17:59N 40°40' W 074°00'0 0.0
2018-Feb-11 17:30N 40°40' W 074°00'0 0.9
2018-Feb-11 17:00N 40°40' W 074°01'1 1.1
2018-Feb-11 16:30N 40°40' W 074°00'0 0.0
2018-Feb-11 16:00N 40°40' W 074°00'1 1.3
2018-Feb-11 15:30N 40°40' W 074°01'3 6.4
2018-Feb-11 14:59N 40°39' W 074°05'1 1.4
2018-Feb-11 14:30N 40°39' W 074°05'1 2.4
2018-Feb-11 13:58N 40°38' W 074°04'2 3.6
2018-Feb-11 13:30N 40°40' W 074°04'1 1.3
2018-Feb-11 13:00N 40°40' W 074°04'0 0.0
2018-Feb-11 12:30N 40°40' W 074°04'0 0.3
2018-Feb-11 12:00N 40°40' W 074°04'0 0.0
2018-Feb-11 11:30N 40°40' W 074°04'0 0.0
2018-Feb-11 11:00N 40°40' W 074°04'0 0.0
2018-Feb-11 10:30N 40°40' W 074°04'0 0.0
2018-Feb-11 10:00N 40°40' W 074°04'0 0.0
2018-Feb-11 09:30N 40°40' W 074°04'0 0.0
2018-Feb-11 08:57N 40°40' W 074°04'0 0.0
2018-Feb-11 08:30N 40°40' W 074°04'0 0.0
2018-Feb-11 08:00N 40°40' W 074°04'0 0.0
2018-Feb-11 07:30N 40°40' W 074°04'0 0.0
2018-Feb-11 07:00N 40°40' W 074°04'0 0.0
2018-Feb-11 06:30N 40°40' W 074°04'0 0.0
2018-Feb-11 06:00N 40°40' W 074°04'1 3.0
2018-Feb-11 05:30N 40°39' W 074°03'2 3.7
2018-Feb-11 05:01N 40°39' W 074°06'1 1.5
2018-Feb-11 04:30N 40°39' W 074°06'0 0.0
2018-Feb-11 04:00N 40°39' W 074°06'1 2.4
2018-Feb-11 03:30N 40°39' W 074°05'1 2.1
2018-Feb-11 03:00N 40°40' W 074°04'1 2.5
2018-Feb-11 02:30N 40°39' W 074°03'2 4.1
2018-Feb-11 01:58N 40°40' W 074°00'0 0.0
2018-Feb-11 01:28N 40°40' W 074°00'0 0.0
2018-Feb-11 01:01N 40°40' W 074°00'1 2.0
2018-Feb-11 00:31N 40°40' W 074°01'4 7.9
2018-Feb-11 00:01N 40°39' W 074°06'2 4.3
2018-Feb-10 23:30N 40°41' W 074°08'2 2.8
2018-Feb-10 22:58N 40°42' W 074°09'0 0.0
2018-Feb-10 22:22N 40°42' W 074°09'0 0.0
2018-Feb-10 21:58N 40°42' W 074°09'0 0.0
2018-Feb-10 21:28N 40°42' W 074°09'0 0.0
2018-Feb-10 20:58N 40°42' W 074°09'0 0.0
2018-Feb-10 20:28N 40°42' W 074°09'0 0.0
2018-Feb-10 19:58N 40°42' W 074°09'0 0.0
2018-Feb-10 19:28N 40°42' W 074°09'0 0.0
2018-Feb-10 18:58N 40°42' W 074°09'1 2.1
2018-Feb-10 18:31N 40°41' W 074°08'1 1.6
2018-Feb-10 17:57N 40°41' W 074°10'0 0.0
2018-Feb-10 17:30N 40°41' W 074°10'0 0.0
2018-Feb-10 17:00N 40°41' W 074°09'0 0.0
2018-Feb-10 16:30N 40°41' W 074°10'0 0.0
2018-Feb-10 16:00N 40°41' W 074°10'0 0.0
2018-Feb-10 15:30N 40°41' W 074°10'0 0.0
2018-Feb-10 15:00N 40°41' W 074°10'0 0.0
2018-Feb-10 14:30N 40°41' W 074°10'0 0.0
2018-Feb-10 14:00N 40°41' W 074°10'0 0.0
2018-Feb-10 13:30N 40°41' W 074°10'0 0.0
2018-Feb-10 13:00N 40°41' W 074°09'2 3.7
2018-Feb-10 12:30N 40°40' W 074°09'2 3.6
2018-Feb-10 11:56N 40°39' W 074°06'2 3.8
2018-Feb-10 11:30N 40°40' W 074°04'1 1.8
2018-Feb-10 10:58N 40°40' W 074°05'0 0.0
2018-Feb-10 10:26N 40°40' W 074°05'1 1.8
2018-Feb-10 10:00N 40°40' W 074°04'2 3.6
2018-Feb-10 09:30N 40°39' W 074°06'1 1.9
2018-Feb-10 09:00N 40°39' W 074°05'2 3.9
2018-Feb-10 08:29N 40°41' W 074°03'1 2.2
2018-Feb-10 08:00N 40°40' W 074°04'0 0.3
2018-Feb-10 07:30N 40°40' W 074°04'0 0.0
2018-Feb-10 07:00N 40°40' W 074°04'0 0.0
2018-Feb-10 06:30N 40°40' W 074°04'0 0.0
2018-Feb-10 06:00N 40°40' W 074°04'2 3.9
2018-Feb-10 05:31N 40°39' W 074°02'2 3.2
2018-Feb-10 04:59N 40°40' W 074°00'0 0.0
2018-Feb-10 04:29N 40°40' W 074°00'0 0.2
2018-Feb-10 04:00N 40°40' W 074°00'1 1.3
2018-Feb-10 03:30N 40°40' W 074°01'3 6.5
2018-Feb-10 03:00N 40°43' W 074°01'5 9.8
2018-Feb-10 02:30N 40°48' W 073°59'5 9.7
2018-Feb-10 01:59N 40°52' W 073°56'4 9.3
2018-Feb-10 01:30N 40°56' W 073°54'  

Dump ship's entire track history